Time;durP1;ratioP1;P1;durP2;ratioP2;P2;SDS_P1;SDS_P2;PMS_P1;PMS_P2;Temp;Humidity;BMP_temperature;BMP_pressure;BME280_temperature;BME280_humidity;BME280_pressure;Samples;Min_cycle;Max_cycle;Signal;HPM_P1;HPM_P2
2023/07/24 00:01:46;;;;;;;;;;;;;;;22.21;54.41;100390.41;5081596;28;20377;-74
2023/07/24 00:04:11;;;;;;;;;;;;;;;22.21;54.19;100387.69;5051043;28;20461;-74
2023/07/24 00:06:36;;;;;;;;;;;;;;;22.20;54.31;100383.34;5053121;28;20400;-74
2023/07/24 00:09:02;;;;;;;;;;;;;;;22.19;54.42;100381.66;5085547;28;19913;-74
2023/07/24 00:11:27;;;;;;;;;;;;;;;22.20;54.51;100384.16;5052807;28;19913;-74
2023/07/24 00:13:52;;;;;;;;;;;;;;;22.19;54.47;100385.22;5054564;28;19923;-74
2023/07/24 00:16:17;;;;;;;;;;;;;;;22.18;54.38;100383.53;5053530;28;19917;-74
2023/07/24 00:18:42;;;;;;;;;;;;;;;22.18;54.41;100380.00;5052863;28;19921;-74
2023/07/24 00:21:08;;;;;;;;;;;;;;;22.17;54.40;100373.75;5052881;28;19920;-74
2023/07/24 00:23:33;;;;;;;;;;;;;;;22.18;54.13;100366.47;5048957;28;19917;-74
2023/07/24 00:25:58;;;;;;;;;;;;;;;22.18;54.24;100375.44;5056219;28;19940;-74
2023/07/24 00:28:23;;;;;;;;;;;;;;;22.17;54.14;100359.34;5054605;28;19933;-74
2023/07/24 00:30:49;;;;;;;;;;;;;;;22.17;54.10;100362.06;5053468;28;19960;-74
2023/07/24 00:33:14;;;;;;;;;;;;;;;22.16;54.43;100363.94;5053967;28;19917;-74
2023/07/24 00:35:39;;;;;;;;;;;;;;;22.16;54.47;100366.66;5055137;28;19988;-74
2023/07/24 00:38:04;;;;;;;;;;;;;;;22.16;54.46;100363.94;5052339;28;19980;-74
2023/07/24 00:40:29;;;;;;;;;;;;;;;22.16;54.21;100363.94;5054012;28;19913;-74
2023/07/24 00:42:54;;;;;;;;;;;;;;;22.16;54.47;100357.69;5053073;28;19919;-74
2023/07/24 00:45:20;;;;;;;;;;;;;;;22.16;54.34;100363.94;5050045;28;19917;-74
2023/07/24 00:47:46;;;;;;;;;;;;;;;22.15;54.38;100353.31;5053119;28;19913;-74
2023/07/24 00:50:11;;;;;;;;;;;;;;;22.16;53.99;100355.00;5084898;28;19940;-74
2023/07/24 00:52:36;;;;;;;;;;;;;;;22.15;54.26;100350.63;5052707;28;19928;-74
2023/07/24 00:55:01;;;;;;;;;;;;;;;22.14;54.39;100352.50;5054448;28;20012;-74
2023/07/24 00:57:27;;;;;;;;;;;;;;;22.15;54.24;100342.50;5053117;28;19944;-74
2023/07/24 00:59:52;;;;;;;;;;;;;;;22.14;54.24;100333.53;5052979;28;19917;-74
2023/07/24 01:02:17;;;;;;;;;;;;;;;22.14;54.10;100330.00;5086350;28;19923;-73
2023/07/24 01:04:42;;;;;;;;;;;;;;;22.14;54.39;100330.00;5054152;28;19948;-74
2023/07/24 01:07:07;;;;;;;;;;;;;;;22.14;54.31;100321.88;5054152;28;19966;-74
2023/07/24 01:09:33;;;;;;;;;;;;;;;22.13;54.25;100317.47;5088202;28;19913;-74
2023/07/24 01:12:13;;;;;;;;;;;;;;;22.13;54.12;100321.06;5049624;28;19921;-74
2023/07/24 01:14:39;;;;;;;;;;;;;;;22.12;53.94;100313.94;5051908;28;19921;-74
2023/07/24 01:17:04;;;;;;;;;;;;;;;22.12;53.95;100305.81;5048709;28;20389;-74
2023/07/24 01:19:29;;;;;;;;;;;;;;;22.12;53.88;100304.97;5080437;28;19921;-74
2023/07/24 01:22:07;;;;;;;;;;;;;;;22.12;54.06;100299.53;5053143;28;19936;-74
2023/07/24 01:24:53;;;;;;;;;;;;;;;22.11;53.96;100304.13;5048797;28;19969;-74
2023/07/24 01:27:19;;;;;;;;;;;;;;;22.11;54.26;100295.19;5052375;28;19917;-74
2023/07/24 01:29:45;;;;;;;;;;;;;;;22.11;54.20;100289.75;5085816;28;19952;-74
2023/07/24 01:32:10;;;;;;;;;;;;;;;22.11;53.94;100292.47;5052964;28;19927;-74
2023/07/24 01:34:35;;;;;;;;;;;;;;;22.11;53.97;100297.88;5053537;28;19939;-74
2023/07/24 01:37:00;;;;;;;;;;;;;;;22.10;53.99;100297.06;5086002;28;19913;-74
2023/07/24 01:39:25;;;;;;;;;;;;;;;22.11;54.22;100300.59;5053112;28;19920;-74
2023/07/24 01:41:51;;;;;;;;;;;;;;;22.10;53.88;100298.94;5086080;28;20000;-74
2023/07/24 01:44:16;;;;;;;;;;;;;;;22.10;54.08;100299.75;5049187;28;20434;-74
2023/07/24 01:46:41;;;;;;;;;;;;;;;22.10;54.14;100296.22;5050791;28;19912;-74
2023/07/24 01:49:06;;;;;;;;;;;;;;;22.09;54.17;100294.53;5052405;28;20530;-74
2023/07/24 01:51:31;;;;;;;;;;;;;;;22.09;54.06;100286.41;5064335;28;19916;-74
2023/07/24 01:53:57;;;;;;;;;;;;;;;22.09;53.91;100275.56;5068596;28;19921;-74
2023/07/24 01:56:22;;;;;;;;;;;;;;;22.08;54.08;100273.91;5053334;28;19917;-74
2023/07/24 01:58:47;;;;;;;;;;;;;;;22.09;54.01;100270.16;5054106;28;20358;-74
2023/07/24 02:01:14;;;;;;;;;;;;;;;22.08;54.16;100279.34;5051898;28;20452;-74
2023/07/24 02:03:39;;;;;;;;;;;;;;;22.08;53.78;100274.75;5053861;28;20024;-74
2023/07/24 02:06:04;;;;;;;;;;;;;;;22.08;54.14;100276.63;5052082;28;19913;-74
2023/07/24 02:08:29;;;;;;;;;;;;;;;22.08;54.08;100276.63;5052609;28;20374;-74
2023/07/24 02:10:55;;;;;;;;;;;;;;;22.08;53.91;100276.63;5052058;28;19913;-74
2023/07/24 02:13:20;;;;;;;;;;;;;;;22.07;54.08;100275.78;5048747;28;19984;-74
2023/07/24 02:15:45;;;;;;;;;;;;;;;22.07;53.85;100267.69;5049490;28;19940;-74
2023/07/24 02:18:10;;;;;;;;;;;;;;;22.07;54.05;100266.84;5046256;28;19928;-74
2023/07/24 02:20:36;;;;;;;;;;;;;;;22.06;53.90;100267.88;5085163;28;19925;-74
2023/07/24 02:23:01;;;;;;;;;;;;;;;22.06;54.00;100265.19;5034832;28;19912;-74
2023/07/24 02:25:26;;;;;;;;;;;;;;;22.06;54.02;100255.19;5083038;28;19923;-74
2023/07/24 02:27:51;;;;;;;;;;;;;;;22.06;54.10;100259.78;5084152;28;19920;-73
2023/07/24 02:30:16;;;;;;;;;;;;;;;22.05;53.88;100253.53;5051649;28;19913;-74
2023/07/24 02:32:42;;;;;;;;;;;;;;;22.05;53.83;100253.53;5067398;28;19948;-74
2023/07/24 02:35:07;;;;;;;;;;;;;;;22.05;53.78;100248.13;5052193;28;19913;-74
2023/07/24 02:37:32;;;;;;;;;;;;;;;22.05;53.87;100247.28;5053671;28;20013;-74
2023/07/24 02:39:57;;;;;;;;;;;;;;;22.04;53.87;100249.13;5049987;28;19997;-74
2023/07/24 02:42:23;;;;;;;;;;;;;;;22.04;53.94;100259.13;5050450;28;19920;-74
2023/07/24 02:44:48;;;;;;;;;;;;;;;22.05;54.10;100258.09;5047950;28;19928;-73
2023/07/24 02:47:13;;;;;;;;;;;;;;;22.03;54.13;100257.47;5048750;28;19944;-74
2023/07/24 02:49:38;;;;;;;;;;;;;;;22.04;53.94;100259.13;5054104;28;19916;-74
2023/07/24 02:52:04;;;;;;;;;;;;;;;22.03;53.88;100255.59;5080961;28;19921;-74
2023/07/24 02:54:29;;;;;;;;;;;;;;;22.03;53.89;100252.88;5053005;28;19917;-74
2023/07/24 02:56:54;;;;;;;;;;;;;;;22.02;54.01;100253.09;5034612;28;20016;-74
2023/07/24 02:59:20;;;;;;;;;;;;;;;22.02;53.92;100256.63;5052230;28;19955;-74
2023/07/24 03:01:45;;;;;;;;;;;;;;;22.02;54.02;100255.81;5083258;28;19960;-74
2023/07/24 03:04:10;;;;;;;;;;;;;;;22.02;54.09;100244.97;5051504;28;19935;-74
2023/07/24 03:06:35;;;;;;;;;;;;;;;22.01;53.92;100246.03;5049905;28;19913;-74
2023/07/24 03:09:01;;;;;;;;;;;;;;;22.01;53.88;100249.56;5052020;28;20009;-74
2023/07/24 03:11:26;;;;;;;;;;;;;;;22.01;53.70;100256.84;5049790;28;19918;-74
2023/07/24 03:13:51;;;;;;;;;;;;;;;22.01;53.93;100252.25;5047903;28;19923;-74
2023/07/24 03:16:20;;;;;;;;;;;;;;;22.00;53.81;100247.88;5054813;28;19955;-74
2023/07/24 03:18:46;;;;;;;;;;;;;;;22.01;53.95;100246.03;5048998;28;19943;-74
2023/07/24 03:21:11;;;;;;;;;;;;;;;22.00;53.94;100238.91;5050250;28;19960;-74
2023/07/24 03:23:36;;;;;;;;;;;;;;;21.99;53.96;100235.38;5051850;28;19919;-74
2023/07/24 03:26:01;;;;;;;;;;;;;;;21.99;53.98;100238.09;5050081;28;19913;-74
2023/07/24 03:28:27;;;;;;;;;;;;;;;21.98;53.94;100227.47;5052794;28;19913;-74
2023/07/24 03:30:52;;;;;;;;;;;;;;;22.00;53.93;100225.38;5052188;28;19920;-74
2023/07/24 03:33:17;;;;;;;;;;;;;;;;;;5048311;28;19921;-74
2023/07/24 03:35:42;;;;;;;;;;;;;;;;;;5049623;28;20015;-74
2023/07/24 03:38:07;;;;;;;;;;;;;;;21.98;53.96;100213.94;5051414;28;20402;-74
2023/07/24 03:40:32;;;;;;;;;;;;;;;;;;5049257;28;19917;-74
2023/07/24 03:42:58;;;;;;;;;;;;;;;;;;5057808;28;19917;-74
2023/07/24 03:45:23;;;;;;;;;;;;;;;21.96;53.79;100204.16;5056281;28;19917;-74
2023/07/24 03:47:48;;;;;;;;;;;;;;;21.96;54.02;100206.88;5055210;28;19921;-74
2023/07/24 03:50:13;;;;;;;;;;;;;;;21.95;53.94;100199.75;5074091;28;19912;-74
2023/07/24 03:52:38;;;;;;;;;;;;;;;21.96;53.84;100211.41;5056394;28;19960;-74
2023/07/24 03:55:04;;;;;;;;;;;;;;;21.96;53.83;100214.13;5056489;28;19924;-74
2023/07/24 03:57:29;;;;;;;;;;;;;;;21.95;54.02;100204.34;5057643;28;19988;-74
2023/07/24 03:59:54;;;;;;;;;;;;;;;21.95;53.90;100199.75;5057098;28;19917;-74
2023/07/24 04:02:19;;;;;;;;;;;;;;;21.95;53.65;100201.63;5088133;28;19913;-74
2023/07/24 04:04:44;;;;;;;;;;;;;;;21.95;53.77;100210.59;5057924;28;19988;-75
2023/07/24 04:07:10;;;;;;;;;;;;;;;21.94;53.82;100208.09;5053543;28;19925;-73
2023/07/24 04:09:35;;;;;;;;;;;;;;;21.93;54.00;100212.69;5054784;28;19963;-74
2023/07/24 04:12:00;;;;;;;;;;;;;;;21.94;54.06;100217.06;5055412;28;20009;-74
2023/07/24 04:14:25;;;;;;;;;;;;;;;21.94;53.82;100208.09;5085423;28;19924;-73
2023/07/24 04:16:51;;;;;;;;;;;;;;;21.94;53.80;100200.81;5055426;28;19920;-74
2023/07/24 04:19:16;;;;;;;;;;;;;;;21.95;54.24;100212.47;5057496;28;19921;-74
2023/07/24 04:21:41;;;;;;;;;;;;;;;21.95;53.93;100212.47;5057969;28;19962;-73
2023/07/24 04:24:06;;;;;;;;;;;;;;;21.94;54.23;100219.75;5056217;28;20015;-73
2023/07/24 04:26:31;;;;;;;;;;;;;;;21.95;54.16;100201.63;5091443;28;20023;-75
2023/07/24 04:28:57;;;;;;;;;;;;;;;21.95;54.25;100199.75;5057659;28;19913;-74
2023/07/24 04:31:24;;;;;;;;;;;;;;;21.95;54.12;100197.06;5055857;28;20171;-73
2023/07/24 04:33:49;;;;;;;;;;;;;;;21.96;54.18;100197.88;5056308;28;19917;-72
2023/07/24 04:36:14;;;;;;;;;;;;;;;21.95;54.36;100205.19;5053313;28;19913;-73
2023/07/24 04:38:39;;;;;;;;;;;;;;;21.95;54.34;100198.94;5056184;28;19956;-72
2023/07/24 04:41:04;;;;;;;;;;;;;;;21.95;54.61;100205.19;5054275;28;19929;-73
2023/07/24 04:43:30;;;;;;;;;;;;;;;21.95;54.72;100199.75;5056782;28;19963;-74
2023/07/24 04:45:55;;;;;;;;;;;;;;;21.95;54.67;100202.47;5069327;28;19921;-74
2023/07/24 04:48:20;;;;;;;;;;;;;;;21.95;54.70;100194.34;5089254;28;19921;-72
2023/07/24 04:50:45;;;;;;;;;;;;;;;21.96;54.73;100206.00;5057312;28;19924;-72
2023/07/24 04:53:10;;;;;;;;;;;;;;;21.96;54.35;100206.00;5035996;28;19940;-72
2023/07/24 04:55:36;;;;;;;;;;;;;;;21.95;54.40;100194.34;5054811;28;19959;-73
2023/07/24 04:58:01;;;;;;;;;;;;;;;21.95;54.67;100205.19;5052473;28;19948;-73
2023/07/24 05:00:26;;;;;;;;;;;;;;;21.96;54.47;100197.88;5053613;28;19960;-73
2023/07/24 05:02:51;;;;;;;;;;;;;;;21.95;54.51;100202.47;5050404;28;19913;-74
2023/07/24 05:05:17;;;;;;;;;;;;;;;21.96;54.50;100203.31;5052946;28;19917;-74
2023/07/24 05:07:42;;;;;;;;;;;;;;;21.96;54.73;100215.00;5077605;28;19917;-74
2023/07/24 05:10:07;;;;;;;;;;;;;;;;;;5048987;28;19971;-74
2023/07/24 05:12:32;;;;;;;;;;;;;;;21.96;54.68;100209.56;5056241;28;19917;-74
2023/07/24 05:14:57;;;;;;;;;;;;;;;21.96;54.82;100197.88;5051744;28;19986;-75
2023/07/24 05:17:22;;;;;;;;;;;;;;;21.95;54.95;100202.47;5054561;28;19924;-74
2023/07/24 05:19:48;;;;;;;;;;;;;;;21.95;54.75;100202.47;5053958;28;20004;-74
2023/07/24 05:22:13;;;;;;;;;;;;;;;21.95;54.82;100198.94;5052667;28;19917;-74
2023/07/24 05:24:38;;;;;;;;;;;;;;;21.94;55.02;100211.63;5052886;28;19928;-75
2023/07/24 05:27:04;;;;;;;;;;;;;;;21.96;54.99;100211.41;5053256;28;19949;-74
2023/07/24 05:29:29;;;;;;;;;;;;;;;21.95;54.95;100215.19;5049189;28;19944;-74
2023/07/24 05:31:54;;;;;;;;;;;;;;;21.95;54.99;100220.59;5053602;28;19917;-74
2023/07/24 05:34:20;;;;;;;;;;;;;;;21.95;54.73;100216.00;5050838;28;19939;-75
2023/07/24 05:36:45;;;;;;;;;;;;;;;21.95;54.91;100215.19;5050364;28;19921;-74
2023/07/24 05:39:10;;;;;;;;;;;;;;;21.94;54.83;100221.63;5055895;28;19947;-74
2023/07/24 05:41:35;;;;;;;;;;;;;;;21.94;55.02;100218.94;5050196;28;19924;-75
2023/07/24 05:44:00;;;;;;;;;;;;;;;21.95;55.00;100217.88;5047337;28;19917;-73
2023/07/24 05:46:26;;;;;;;;;;;;;;;21.95;55.13;100220.59;5042547;28;19928;-74
2023/07/24 05:48:51;;;;;;;;;;;;;;;21.94;55.20;100222.47;5065025;28;20369;-73
2023/07/24 05:51:16;;;;;;;;;;;;;;;21.95;54.98;100232.25;5051136;28;19913;-73
2023/07/24 05:53:41;;;;;;;;;;;;;;;21.94;54.79;100219.75;5052519;28;19921;-72
2023/07/24 05:56:07;;;;;;;;;;;;;;;21.94;54.61;100217.06;5048867;28;19928;-73
2023/07/24 05:58:32;;;;;;;;;;;;;;;21.95;54.75;100221.41;5049285;28;19921;-72
2023/07/24 06:00:57;;;;;;;;;;;;;;;21.95;54.75;100223.28;5049588;28;19940;-72
2023/07/24 06:03:23;;;;;;;;;;;;;;;21.95;54.87;100232.25;5046305;28;19920;-74
2023/07/24 06:05:54;;;;;;;;;;;;;;;21.95;54.79;100226.00;5048904;28;19921;-73
2023/07/24 06:08:19;;;;;;;;;;;;;;;21.94;54.82;100217.06;5047377;28;19925;-74
2023/07/24 06:10:48;;;;;;;;;;;;;;;21.95;54.62;100223.28;5082829;28;19965;-74
2023/07/24 06:13:14;;;;;;;;;;;;;;;21.96;54.63;100220.41;5048558;28;19960;-73
2023/07/24 06:15:39;;;;;;;;;;;;;;;21.96;54.61;100222.25;5030818;28;19929;-73
2023/07/24 06:18:04;;;;;;;;;;;;;;;21.96;54.69;100222.25;5051731;28;19945;-73
2023/07/24 06:20:30;;;;;;;;;;;;;;;21.95;54.73;100215.19;5050202;28;19987;-73
2023/07/24 06:22:55;;;;;;;;;;;;;;;21.95;54.82;100218.72;5049087;28;19927;-73
2023/07/24 06:25:20;;;;;;;;;;;;;;;21.95;54.70;100216.00;5048910;28;19919;-73
2023/07/24 06:27:45;;;;;;;;;;;;;;;21.95;54.61;100215.19;5050345;28;19924;-73
2023/07/24 06:30:10;;;;;;;;;;;;;;;21.95;54.88;100215.19;5080123;28;19917;-74
2023/07/24 06:32:36;;;;;;;;;;;;;;;21.94;54.63;100225.16;5045698;28;19925;-72
2023/07/24 06:35:01;;;;;;;;;;;;;;;21.95;54.53;100220.59;5045293;28;19921;-74
2023/07/24 06:37:26;;;;;;;;;;;;;;;21.95;54.55;100229.53;5048408;28;19921;-73
2023/07/24 06:39:51;;;;;;;;;;;;;;;21.95;54.81;100224.13;5050718;28;19917;-73
2023/07/24 06:42:16;;;;;;;;;;;;;;;21.95;54.72;100229.53;5046284;28;19994;-73
2023/07/24 06:44:42;;;;;;;;;;;;;;;21.96;54.92;100223.09;5048602;28;19917;-73
2023/07/24 06:47:07;;;;;;;;;;;;;;;21.96;54.86;100228.53;5085244;28;19917;-73
2023/07/24 06:49:32;;;;;;;;;;;;;;;21.96;54.96;100219.53;5050246;28;19913;-74
2023/07/24 06:51:57;;;;;;;;;;;;;;;21.98;54.87;100232.88;5049208;28;19913;-73
2023/07/24 06:54:22;;;;;;;;;;;;;;;21.96;54.74;100228.53;5051612;28;19913;-73
2023/07/24 06:56:48;;;;;;;;;;;;;;;;;;5045419;28;19917;-73
2023/07/24 06:59:13;;;;;;;;;;;;;;;;;;5050903;28;19977;-73
2023/07/24 07:01:38;;;;;;;;;;;;;;;;;;5047677;28;19999;-73
2023/07/24 07:04:03;;;;;;;;;;;;;;;;;;5047543;28;19913;-75
2023/07/24 07:06:28;;;;;;;;;;;;;;;21.96;54.65;100223.09;5051595;28;19920;-74
2023/07/24 07:08:53;;;;;;;;;;;;;;;21.99;54.94;100223.72;5048914;28;19917;-74
2023/07/24 07:11:19;;;;;;;;;;;;;;;21.99;54.71;100221.84;5033463;28;19916;-74
2023/07/24 07:13:44;;;;;;;;;;;;;;;22.00;54.91;100225.38;5066633;28;19918;-74
2023/07/24 07:16:09;;;;;;;;;;;;;;;21.99;54.61;100229.97;5046908;28;20019;-71
2023/07/24 07:18:34;;;;;;;;;;;;;;;22.00;54.75;100230.78;5047451;28;19928;-75
2023/07/24 07:21:00;;;;;;;;;;;;;;;22.00;54.70;100234.34;5034541;28;20706;-71
2023/07/24 07:23:25;;;;;;;;;;;;;;;22.00;54.81;100231.63;5046701;28;19917;-71
2023/07/24 07:25:51;;;;;;;;;;;;;;;22.02;54.92;100234.16;5077398;28;19928;-72
2023/07/24 07:28:16;;;;;;;;;;;;;;;22.01;54.76;100229.78;5049585;28;19919;-73
2023/07/24 07:30:41;;;;;;;;;;;;;;;22.01;54.71;100227.06;5045935;28;19920;-72
2023/07/24 07:33:07;;;;;;;;;;;;;;;22.02;54.75;100226.84;5049072;28;20592;-72
2023/07/24 07:35:32;;;;;;;;;;;;;;;22.02;54.61;100237.69;5047677;28;19913;-73
2023/07/24 07:37:57;;;;;;;;;;;;;;;22.02;54.69;100221.44;5064677;28;19917;-73
2023/07/24 07:40:23;;;;;;;;;;;;;;;22.03;54.80;100223.09;5046813;28;19939;-74
2023/07/24 07:42:48;;;;;;;;;;;;;;;22.03;55.02;100217.69;5048059;28;19913;-73
2023/07/24 07:45:13;;;;;;;;;;;;;;;22.03;54.87;100228.50;5081651;28;19920;-72
2023/07/24 07:47:39;;;;;;;;;;;;;;;22.04;54.73;100230.19;5050314;28;19920;-75
2023/07/24 07:50:04;;;;;;;;;;;;;;;22.05;55.02;100222.91;5051359;28;19913;-75
2023/07/24 07:52:29;;;;;;;;;;;;;;;22.06;54.94;100219.16;5048440;28;19921;-74
2023/07/24 07:54:54;;;;;;;;;;;;;;;22.05;55.15;100226.47;5083434;28;19918;-75
2023/07/24 07:57:20;;;;;;;;;;;;;;;22.05;55.04;100229.16;5044244;28;19925;-75
2023/07/24 07:59:45;;;;;;;;;;;;;;;22.06;55.18;100227.28;5051555;28;19917;-75
2023/07/24 08:02:10;;;;;;;;;;;;;;;22.06;54.97;100222.69;5050278;28;20035;-75
2023/07/24 08:04:35;;;;;;;;;;;;;;;22.07;55.11;100215.41;5048180;28;19925;-73
2023/07/24 08:07:00;;;;;;;;;;;;;;;22.06;55.10;100209.16;5051298;28;19912;-73
2023/07/24 08:09:26;;;;;;;;;;;;;;;22.07;55.10;100208.13;5083442;28;19913;-73
2023/07/24 08:11:51;;;;;;;;;;;;;;;22.06;54.99;100209.16;5050075;28;19951;-73
2023/07/24 08:14:16;;;;;;;;;;;;;;;22.06;55.24;100195.63;5082386;28;19928;-72
2023/07/24 08:16:42;;;;;;;;;;;;;;;22.08;54.99;100206.25;5050168;28;20409;-73
2023/07/24 08:19:07;;;;;;;;;;;;;;;22.09;55.14;100205.19;5045028;28;19979;-73
2023/07/24 08:21:32;;;;;;;;;;;;;;;22.08;55.15;100201.66;5052631;28;19942;-74
2023/07/24 08:23:58;;;;;;;;;;;;;;;22.09;54.95;100206.06;5047619;28;19916;-76
2023/07/24 08:26:25;;;;;;;;;;;;;;;22.10;54.98;100206.88;5065097;28;20321;-75
2023/07/24 08:28:51;;;;;;;;;;;;;;;22.11;55.15;100208.53;5086400;28;20378;-73
2023/07/24 08:31:16;;;;;;;;;;;;;;;22.11;55.12;100201.25;5082949;28;19913;-76
2023/07/24 08:33:41;;;;;;;;;;;;;;;22.11;55.15;100206.66;5087663;28;19921;-76
2023/07/24 08:36:07;;;;;;;;;;;;;;;22.11;55.16;100203.13;5051873;28;19916;-76
2023/07/24 08:38:32;;;;;;;;;;;;;;;22.12;55.15;100202.09;5056988;28;19919;-76
2023/07/24 08:41:02;;;;;;;;;;;;;;;22.12;55.41;100204.78;5069249;28;19940;-77
2023/07/24 08:43:27;;;;;;;;;;;;;;;22.12;55.26;100221.03;5055881;28;19913;-76
2023/07/24 08:45:53;;;;;;;;;;;;;;;22.11;55.34;100212.06;5085127;28;19969;-76
2023/07/24 08:48:18;;;;;;;;;;;;;;;22.11;55.07;100205.84;5051449;28;20007;-76
2023/07/24 08:50:43;;;;;;;;;;;;;;;22.12;55.00;100204.78;5051865;28;19921;-76
2023/07/24 08:53:08;;;;;;;;;;;;;;;22.11;55.15;100201.25;5051522;28;19924;-76
2023/07/24 08:55:33;;;;;;;;;;;;;;;22.11;54.97;100205.84;5070013;28;19966;-75
2023/07/24 08:57:59;;;;;;;;;;;;;;;22.11;55.08;100209.38;5050023;28;19924;-73
2023/07/24 09:00:24;;;;;;;;;;;;;;;22.12;55.17;100200.22;5054517;28;20002;-75
2023/07/24 09:02:49;;;;;;;;;;;;;;;22.12;54.91;100202.94;5052142;28;19924;-74
2023/07/24 09:05:15;;;;;;;;;;;;;;;22.13;55.25;100199.22;5084569;28;20085;-75
2023/07/24 09:07:41;;;;;;;;;;;;;;;22.13;55.18;100195.66;5053447;28;20386;-75
2023/07/24 09:10:06;;;;;;;;;;;;;;;22.14;55.04;100194.63;5086948;28;19969;-74
2023/07/24 09:12:31;;;;;;;;;;;;;;;22.14;55.08;100184.63;5053940;28;19953;-75
2023/07/24 09:15:03;;;;;;;;;;;;;;;22.15;54.87;100188.16;5053970;28;20000;-75
2023/07/24 09:17:28;;;;;;;;;;;;;;;22.17;55.10;100186.06;5054300;28;19921;-75
2023/07/24 09:19:57;;;;;;;;;;;;;;;22.17;54.88;100180.66;5050791;28;19972;-74
2023/07/24 09:22:22;;;;;;;;;;;;;;;22.18;55.14;100190.47;5084190;28;19967;-76
2023/07/24 09:24:51;;;;;;;;;;;;;;;22.18;55.21;100187.75;5050527;28;19924;-75
2023/07/24 09:27:17;;;;;;;;;;;;;;;22.17;54.93;100181.53;5050489;28;20003;-75
2023/07/24 09:29:42;;;;;;;;;;;;;;;22.19;54.94;100182.13;5055814;28;20473;-75
2023/07/24 09:32:08;;;;;;;;;;;;;;;22.19;55.20;100182.13;5051848;28;19951;-75
2023/07/24 09:34:33;;;;;;;;;;;;;;;22.21;55.02;100181.91;5051980;28;19920;-75
2023/07/24 09:36:58;;;;;;;;;;;;;;;22.21;55.07;100165.66;5053694;28;19921;-76
2023/07/24 09:39:27;;;;;;;;;;;;;;;22.21;55.07;100177.31;5053146;28;19920;-77
2023/07/24 09:41:52;;;;;;;;;;;;;;;22.22;55.02;100170.06;5035178;28;19920;-75
2023/07/24 09:44:17;;;;;;;;;;;;;;;22.23;55.13;100165.47;5054075;28;19913;-76
2023/07/24 09:46:43;;;;;;;;;;;;;;;22.24;55.11;100169.84;5049454;28;19960;-77
2023/07/24 09:49:08;;;;;;;;;;;;;;;22.23;55.22;100166.31;5050919;28;19920;-77
2023/07/24 09:51:33;;;;;;;;;;;;;;;22.25;55.16;100168.78;5050883;28;19913;-76
2023/07/24 09:54:01;;;;;;;;;;;;;;;22.26;55.41;100165.03;5080514;28;19924;-76
2023/07/24 09:56:26;;;;;;;;;;;;;;;22.24;55.48;100159.84;5054293;28;19976;-76
2023/07/24 09:58:54;;;;;;;;;;;;;;;22.26;55.25;100152.34;5049286;28;19921;-75
2023/07/24 10:01:20;;;;;;;;;;;;;;;22.27;55.17;100145.88;5050074;28;19970;-77
2023/07/24 10:03:46;;;;;;;;;;;;;;;22.28;55.61;100146.72;5052642;28;19921;-76
2023/07/24 10:06:12;;;;;;;;;;;;;;;22.29;55.43;100141.09;5052376;28;19962;-75
2023/07/24 10:08:37;;;;;;;;;;;;;;;22.32;55.72;100156.09;5084142;28;20309;-73
2023/07/24 10:11:02;;;;;;;;;;;;;;;22.32;56.04;100148.78;5052654;28;19921;-72
2023/07/24 10:13:27;;;;;;;;;;;;;;;22.32;57.02;100145.25;5051735;28;19929;-75
2023/07/24 10:15:53;;;;;;;;;;;;;;;22.32;56.91;100127.13;5083911;28;19917;-72
2023/07/24 10:18:25;;;;;;;;;;;;;;;22.33;56.48;100136.09;5051405;28;20345;-73
2023/07/24 10:20:59;;;;;;;;;;;;;;;22.35;56.52;100137.56;5064909;28;19917;-73
2023/07/24 10:23:24;;;;;;;;;;;;;;;22.35;56.57;100131.31;5050894;28;19913;-72
2023/07/24 10:25:49;;;;;;;;;;;;;;;22.36;56.68;100141.09;5049485;28;20667;-72
2023/07/24 10:28:16;;;;;;;;;;;;;;;22.35;56.62;100145.69;5050040;28;19996;-72
2023/07/24 10:30:41;;;;;;;;;;;;;;;22.36;56.44;100141.09;5052742;28;19922;-73
2023/07/24 10:33:10;;;;;;;;;;;;;;;22.36;56.55;100151.94;5084804;28;19987;-73
2023/07/24 10:35:42;;;;;;;;;;;;;;;22.35;56.38;100145.69;5050346;28;19995;-72
2023/07/24 10:38:07;;;;;;;;;;;;;;;22.35;56.63;100144.84;5050374;28;19935;-73
2023/07/24 10:40:32;;;;;;;;;;;;;;;22.35;56.31;100134.84;5049702;28;20351;-72
2023/07/24 10:43:04;;;;;;;;;;;;;;;22.35;56.19;100129.44;5051559;28;19916;-72
2023/07/24 10:45:38;;;;;;;;;;;;;;;22.35;56.43;100129.44;5049120;28;19924;-72
2023/07/24 10:48:03;;;;;;;;;;;;;;;22.38;56.18;100134.41;5049059;28;19976;-73
2023/07/24 10:50:35;;;;;;;;;;;;;;;22.38;56.16;100131.69;5050443;28;19913;-73
2023/07/24 10:53:01;;;;;;;;;;;;;;;22.39;56.08;100137.97;5081169;28;19955;-76
2023/07/24 10:55:26;;;;;;;;;;;;;;;22.38;56.57;100130.88;5049579;28;19913;-76
2023/07/24 10:57:52;;;;;;;;;;;;;;;22.37;56.20;100132.75;5053963;28;19967;-75
2023/07/24 11:00:17;;;;;;;;;;;;;;;22.36;56.01;100128.38;5033075;28;19912;-75
2023/07/24 11:02:42;;;;;;;;;;;;;;;22.37;56.25;100130.03;5053098;28;19917;-75
2023/07/24 11:05:08;;;;;;;;;;;;;;;22.39;55.77;100127.13;5048701;28;19917;-76
2023/07/24 11:07:33;;;;;;;;;;;;;;;22.38;55.96;100125.44;5051410;28;19913;-75
2023/07/24 11:09:59;;;;;;;;;;;;;;;22.36;56.00;100124.84;5050995;28;19917;-76
2023/07/24 11:12:26;;;;;;;;;;;;;;;22.38;56.02;100126.28;5051769;28;19924;-75
2023/07/24 11:14:55;;;;;;;;;;;;;;;22.37;56.25;100126.50;5048349;28;19920;-75
2023/07/24 11:17:21;;;;;;;;;;;;;;;22.37;56.16;100130.03;5049626;28;19920;-74
2023/07/24 11:19:46;;;;;;;;;;;;;;;22.36;55.99;100127.56;5049258;28;19925;-75
2023/07/24 11:22:11;;;;;;;;;;;;;;;22.39;56.06;100137.97;5050352;28;19913;-75
2023/07/24 11:24:43;;;;;;;;;;;;;;;22.39;56.08;100146.09;5053329;28;19917;-75
2023/07/24 11:27:10;;;;;;;;;;;;;;;22.39;55.86;100149.63;5048657;28;19920;-74
2023/07/24 11:29:35;;;;;;;;;;;;;;;22.39;55.95;100155.06;5050662;28;19916;-75
2023/07/24 11:32:00;;;;;;;;;;;;;;;22.40;55.90;100158.59;5049850;28;19921;-75
2023/07/24 11:34:26;;;;;;;;;;;;;;;22.39;56.11;100163.19;5083973;28;19927;-75
2023/07/24 11:36:51;;;;;;;;;;;;;;;22.39;55.78;100163.19;5047963;28;19953;-76
2023/07/24 11:39:23;;;;;;;;;;;;;;;22.40;56.08;100162.13;5053642;28;20327;-76
2023/07/24 11:41:49;;;;;;;;;;;;;;;22.40;55.63;100156.72;5045453;28;19990;-75
2023/07/24 11:44:16;;;;;;;;;;;;;;;22.40;55.89;100162.13;5084662;28;19978;-76
2023/07/24 11:46:41;;;;;;;;;;;;;;;22.40;55.83;100154.00;5047339;28;19913;-75
2023/07/24 11:49:07;;;;;;;;;;;;;;;22.41;55.71;100154.84;5082335;28;19919;-76
2023/07/24 11:51:33;;;;;;;;;;;;;;;22.41;55.80;100152.13;5051820;28;19913;-75
2023/07/24 11:54:07;;;;;;;;;;;;;;;22.41;55.73;100155.66;5051075;28;19917;-74
2023/07/24 11:56:33;;;;;;;;;;;;;;;22.45;55.81;100150.66;5050795;28;19940;-76
2023/07/24 11:59:08;;;;;;;;;;;;;;;22.44;55.81;100141.69;5080801;28;19913;-77
2023/07/24 12:01:33;;;;;;;;;;;;;;;22.44;55.73;100139.00;5032243;28;19924;-77
2023/07/24 12:03:58;;;;;;;;;;;;;;;22.46;55.62;100146.91;5054007;28;19921;-77
2023/07/24 12:06:26;;;;;;;;;;;;;;;22.46;55.58;100152.31;5057954;28;19935;-76
2023/07/24 12:08:51;;;;;;;;;;;;;;;22.47;55.46;100151.25;5050856;28;19921;-79
2023/07/24 12:11:19;;;;;;;;;;;;;;;22.49;55.67;100143.78;5053681;28;20004;-76
2023/07/24 12:13:45;;;;;;;;;;;;;;;22.49;55.65;100140.25;5085592;28;19935;-75
2023/07/24 12:16:10;;;;;;;;;;;;;;;22.50;55.54;100139.19;5050134;28;20485;-75
2023/07/24 12:18:35;;;;;;;;;;;;;;;22.50;55.39;100131.06;5057655;28;19972;-76
2023/07/24 12:21:00;;;;;;;;;;;;;;;22.51;55.60;100132.72;5051809;28;19928;-76
2023/07/24 12:23:26;;;;;;;;;;;;;;;22.50;55.53;100125.66;5056132;28;19913;-76
2023/07/24 12:25:51;;;;;;;;;;;;;;;22.51;55.60;100130.00;5036646;28;19917;-77
2023/07/24 12:28:16;;;;;;;;;;;;;;;22.51;55.56;100122.72;5053661;28;19913;-74
2023/07/24 12:30:42;;;;;;;;;;;;;;;22.51;55.39;100122.72;5051202;28;19943;-76
2023/07/24 12:33:07;;;;;;;;;;;;;;;22.52;55.59;100120.88;5055003;28;19927;-76
2023/07/24 12:35:32;;;;;;;;;;;;;;;22.54;55.25;100108.75;5034397;28;19927;-76